sensor_id;sensor_type;location;lat;lon;timestamp;pressure;altitude;pressure_sealevel;temperature;humidity
49945;BME280;35838;49.134;9.212;2023-11-18T00:01:02;100782.41;;;6.96;100.00
49945;BME280;35838;49.134;9.212;2023-11-18T00:02:34;100789.31;;;6.97;100.00
49945;BME280;35838;49.134;9.212;2023-11-18T00:04:07;100784.84;;;6.89;100.00
49945;BME280;35838;49.134;9.212;2023-11-18T00:05:46;100795.56;;;6.71;100.00
49945;BME280;35838;49.134;9.212;2023-11-18T00:07:19;100790.38;;;6.70;100.00
49945;BME280;35838;49.134;9.212;2023-11-18T00:08:53;100795.78;;;6.79;100.00
49945;BME280;35838;49.134;9.212;2023-11-18T00:10:27;100792.25;;;6.77;100.00
49945;BME280;35838;49.134;9.212;2023-11-18T00:11:58;100795.84;;;6.82;100.00
49945;BME280;35838;49.134;9.212;2023-11-18T00:13:31;100789.09;;;6.87;100.00
49945;BME280;35838;49.134;9.212;2023-11-18T00:15:05;100794.34;;;6.90;100.00
49945;BME280;35838;49.134;9.212;2023-11-18T00:16:39;100789.13;;;6.89;100.00
49945;BME280;35838;49.134;9.212;2023-11-18T00:18:12;100785.78;;;6.93;100.00
49945;BME280;35838;49.134;9.212;2023-11-18T00:19:43;100790.25;;;6.99;100.00
49945;BME280;35838;49.134;9.212;2023-11-18T00:21:17;100789.47;;;7.03;100.00
49945;BME280;35838;49.134;9.212;2023-11-18T00:22:49;100780.75;;;6.98;100.00
49945;BME280;35838;49.134;9.212;2023-11-18T00:24:26;100783.44;;;7.02;100.00
49945;BME280;35838;49.134;9.212;2023-11-18T00:25:57;100776.50;;;7.00;100.00
49945;BME280;35838;49.134;9.212;2023-11-18T00:27:30;100779.09;;;7.00;100.00
49945;BME280;35838;49.134;9.212;2023-11-18T00:29:02;100783.50;;;7.05;100.00
49945;BME280;35838;49.134;9.212;2023-11-18T00:30:35;100781.81;;;7.06;100.00
49945;BME280;35838;49.134;9.212;2023-11-18T00:32:06;100784.41;;;7.08;100.00
49945;BME280;35838;49.134;9.212;2023-11-18T00:33:40;100785.91;;;6.98;100.00
49945;BME280;35838;49.134;9.212;2023-11-18T00:35:11;100783.47;;;7.04;100.00
49945;BME280;35838;49.134;9.212;2023-11-18T00:36:45;100787.81;;;7.05;100.00
49945;BME280;35838;49.134;9.212;2023-11-18T00:38:16;100780.03;;;7.03;100.00
49945;BME280;35838;49.134;9.212;2023-11-18T00:39:52;100779.22;;;7.06;100.00
49945;BME280;35838;49.134;9.212;2023-11-18T00:41:23;100773.97;;;7.03;100.00
49945;BME280;35838;49.134;9.212;2023-11-18T00:42:57;100776.50;;;7.00;100.00
49945;BME280;35838;49.134;9.212;2023-11-18T00:44:28;100772.63;;;6.82;100.00
49945;BME280;35838;49.134;9.212;2023-11-18T00:46:02;100771.75;;;6.82;100.00
49945;BME280;35838;49.134;9.212;2023-11-18T00:47:34;100771.94;;;6.89;100.00
49945;BME280;35838;49.134;9.212;2023-11-18T00:49:08;100769.47;;;6.94;100.00
49945;BME280;35838;49.134;9.212;2023-11-18T00:50:39;100770.28;;;6.92;100.00
49945;BME280;35838;49.134;9.212;2023-11-18T00:52:12;100773.94;;;7.01;100.00
49945;BME280;35838;49.134;9.212;2023-11-18T00:53:43;100780.03;;;7.03;100.00
49945;BME280;35838;49.134;9.212;2023-11-18T00:55:20;100779.16;;;7.03;100.00
49945;BME280;35838;49.134;9.212;2023-11-18T00:56:51;100778.31;;;7.04;100.00
49945;BME280;35838;49.134;9.212;2023-11-18T00:58:25;100779.22;;;7.06;100.00
49945;BME280;35838;49.134;9.212;2023-11-18T00:59:56;100780.19;;;7.11;100.00
49945;BME280;35838;49.134;9.212;2023-11-18T01:01:29;100784.47;;;7.09;100.00
49945;BME280;35838;49.134;9.212;2023-11-18T01:03:03;100783.31;;;6.96;100.00
49945;BME280;35838;49.134;9.212;2023-11-18T01:04:36;100787.31;;;6.85;100.00
49945;BME280;35838;49.134;9.212;2023-11-18T01:06:07;100792.66;;;6.93;100.00
49945;BME280;35838;49.134;9.212;2023-11-18T01:07:41;100793.41;;;6.87;100.00
49945;BME280;35838;49.134;9.212;2023-11-18T01:09:13;100796.84;;;6.87;100.00
49945;BME280;35838;49.134;9.212;2023-11-18T01:10:49;100800.53;;;6.64;100.00
49945;BME280;35838;49.134;9.212;2023-11-18T01:12:20;100797.03;;;6.62;100.00
49945;BME280;35838;49.134;9.212;2023-11-18T01:13:54;100797.75;;;6.56;100.00
49945;BME280;35838;49.134;9.212;2023-11-18T01:15:26;100808.47;;;6.71;100.00
49945;BME280;35838;49.134;9.212;2023-11-18T01:17:02;100801.75;;;6.78;100.00
49945;BME280;35838;49.134;9.212;2023-11-18T01:18:33;100799.19;;;6.78;100.00
49945;BME280;35838;49.134;9.212;2023-11-18T01:20:07;100801.97;;;6.86;100.00
49945;BME280;35838;49.134;9.212;2023-11-18T01:21:41;100806.13;;;6.81;100.00
49945;BME280;35838;49.134;9.212;2023-11-18T01:23:16;100801.06;;;6.85;100.00
49945;BME280;35838;49.134;9.212;2023-11-18T01:24:50;100813.38;;;6.96;100.00
49945;BME280;35838;49.134;9.212;2023-11-18T01:26:24;100813.41;;;6.97;100.00
49945;BME280;35838;49.134;9.212;2023-11-18T01:27:58;100821.25;;;7.00;100.00
49945;BME280;35838;49.134;9.212;2023-11-18T01:29:29;100811.00;;;7.03;100.00
49945;BME280;35838;49.134;9.212;2023-11-18T01:31:04;100816.94;;;7.01;100.00
49945;BME280;35838;49.134;9.212;2023-11-18T01:32:35;100819.34;;;6.93;100.00
49945;BME280;35838;49.134;9.212;2023-11-18T01:34:10;100822.03;;;6.98;100.00
49945;BME280;35838;49.134;9.212;2023-11-18T01:35:42;100815.28;;;7.03;100.00
49945;BME280;35838;49.134;9.212;2023-11-18T01:37:16;100815.38;;;7.06;100.00
49945;BME280;35838;49.134;9.212;2023-11-18T01:38:47;100815.44;;;7.09;100.00
49945;BME280;35838;49.134;9.212;2023-11-18T01:40:21;100814.59;;;7.10;100.00
49945;BME280;35838;49.134;9.212;2023-11-18T01:41:57;100819.75;;;7.10;100.00
49945;BME280;35838;49.134;9.212;2023-11-18T01:43:29;100822.41;;;7.12;100.00
49945;BME280;35838;49.134;9.212;2023-11-18T01:45:04;100817.25;;;7.13;100.00
49945;BME280;35838;49.134;9.212;2023-11-18T01:46:35;100809.50;;;7.12;100.00
49945;BME280;35838;49.134;9.212;2023-11-18T01:48:09;100813.75;;;7.11;100.00
49945;BME280;35838;49.134;9.212;2023-11-18T01:49:40;100812.88;;;7.09;100.00
49945;BME280;35838;49.134;9.212;2023-11-18T01:51:14;100810.47;;;7.18;100.00
49945;BME280;35838;49.134;9.212;2023-11-18T01:52:50;100811.28;;;7.16;100.00
49945;BME280;35838;49.134;9.212;2023-11-18T01:54:23;100813.03;;;7.17;100.00
49945;BME280;35838;49.134;9.212;2023-11-18T01:55:57;100807.03;;;7.18;100.00
49945;BME280;35838;49.134;9.212;2023-11-18T01:57:32;100807.00;;;7.16;100.00
49945;BME280;35838;49.134;9.212;2023-11-18T01:59:07;100803.59;;;7.17;100.00
49945;BME280;35838;49.134;9.212;2023-11-18T02:00:40;100807.91;;;7.18;100.00
49945;BME280;35838;49.134;9.212;2023-11-18T02:02:16;100807.03;;;7.18;100.00
49945;BME280;35838;49.134;9.212;2023-11-18T02:03:49;100812.19;;;7.16;100.00
49945;BME280;35838;49.134;9.212;2023-11-18T02:05:22;100811.25;;;7.14;100.00
49945;BME280;35838;49.134;9.212;2023-11-18T02:06:54;100812.09;;;7.13;100.00
49945;BME280;35838;49.134;9.212;2023-11-18T02:08:27;100809.53;;;7.15;100.00
49945;BME280;35838;49.134;9.212;2023-11-18T02:10:03;100808.69;;;7.14;100.00
49945;BME280;35838;49.134;9.212;2023-11-18T02:11:37;100818.91;;;7.11;100.00
49945;BME280;35838;49.134;9.212;2023-11-18T02:13:18;100813.84;;;7.14;100.00
49945;BME280;35838;49.134;9.212;2023-11-18T02:14:50;100818.91;;;7.10;100.00
49945;BME280;35838;49.134;9.212;2023-11-18T02:16:25;100815.44;;;7.09;100.00
49945;BME280;35838;49.134;9.212;2023-11-18T02:17:58;100816.91;;;6.99;100.00
49945;BME280;35838;49.134;9.212;2023-11-18T02:19:32;100824.75;;;7.02;100.00
49945;BME280;35838;49.134;9.212;2023-11-18T14:46:35;100454.03;;;8.73;100.00
49945;BME280;35838;49.134;9.212;2023-11-18T14:48:09;100449.69;;;8.72;100.00
49945;BME280;35838;49.134;9.212;2023-11-18T14:49:41;100441.88;;;8.68;100.00
49945;BME280;35838;49.134;9.212;2023-11-18T14:51:14;100443.63;;;8.67;100.00
49945;BME280;35838;49.134;9.212;2023-11-18T14:52:49;100437.56;;;8.67;100.00
49945;BME280;35838;49.134;9.212;2023-11-18T14:54:22;100428.09;;;8.69;100.00
49945;BME280;35838;49.134;9.212;2023-11-18T14:55:56;100425.50;;;8.67;100.00
49945;BME280;35838;49.134;9.212;2023-11-18T14:57:28;100429.78;;;8.64;100.00
49945;BME280;35838;49.134;9.212;2023-11-18T14:59:02;100427.19;;;8.65;100.00
49945;BME280;35838;49.134;9.212;2023-11-18T15:00:35;100425.44;;;8.64;100.00
49945;BME280;35838;49.134;9.212;2023-11-18T15:02:12;100422.03;;;8.65;100.00
49945;BME280;35838;49.134;9.212;2023-11-18T15:03:43;100414.31;;;8.68;100.00
49945;BME280;35838;49.134;9.212;2023-11-18T15:05:17;100408.22;;;8.66;100.00
49945;BME280;35838;49.134;9.212;2023-11-18T15:06:48;100397.00;;;8.64;100.00
49945;BME280;35838;49.134;9.212;2023-11-18T15:08:23;100401.25;;;8.59;100.00
49945;BME280;35838;49.134;9.212;2023-11-18T15:09:54;100397.78;;;8.60;100.00
49945;BME280;35838;49.134;9.212;2023-11-18T15:11:28;100400.44;;;8.65;100.00
49945;BME280;35838;49.134;9.212;2023-11-18T15:12:59;100403.84;;;8.60;100.00
49945;BME280;35838;49.134;9.212;2023-11-18T15:14:32;100415.06;;;8.61;100.00
49945;BME280;35838;49.134;9.212;2023-11-18T15:16:05;100415.16;;;8.67;100.00
49945;BME280;35838;49.134;9.212;2023-11-18T15:17:41;100430.63;;;8.66;100.00
49945;BME280;35838;49.134;9.212;2023-11-18T15:19:12;100438.22;;;8.52;100.00
49945;BME280;35838;49.134;9.212;2023-11-18T15:20:46;100445.19;;;8.57;100.00
49945;BME280;35838;49.134;9.212;2023-11-18T15:22:17;100445.13;;;8.50;100.00
49945;BME280;35838;49.134;9.212;2023-11-18T15:23:51;100439.06;;;8.51;100.00
49945;BME280;35838;49.134;9.212;2023-11-18T15:25:23;100437.34;;;8.50;100.00
49945;BME280;35838;49.134;9.212;2023-11-18T15:26:57;100438.28;;;8.55;100.00
49945;BME280;35838;49.134;9.212;2023-11-18T15:28:30;100439.16;;;8.57;100.00
49945;BME280;35838;49.134;9.212;2023-11-18T15:30:06;100434.84;;;8.57;100.00
49945;BME280;35838;49.134;9.212;2023-11-18T15:31:40;100432.19;;;8.51;100.00
49945;BME280;35838;49.134;9.212;2023-11-18T15:33:16;100436.41;;;8.46;100.00
49945;BME280;35838;49.134;9.212;2023-11-18T15:34:50;100438.19;;;8.49;100.00
49945;BME280;35838;49.134;9.212;2023-11-18T15:36:21;100435.53;;;8.45;100.00
49945;BME280;35838;49.134;9.212;2023-11-18T15:37:56;100433.88;;;8.51;100.00
49945;BME280;35838;49.134;9.212;2023-11-18T15:39:27;100425.28;;;8.50;100.00
49945;BME280;35838;49.134;9.212;2023-11-18T15:41:01;100426.19;;;8.54;100.00
49945;BME280;35838;49.134;9.212;2023-11-18T15:42:34;100429.63;;;8.53;100.00
49945;BME280;35838;49.134;9.212;2023-11-18T15:44:07;100434.88;;;8.59;100.00
49945;BME280;35838;49.134;9.212;2023-11-18T15:45:42;100432.31;;;8.59;100.00
49945;BME280;35838;49.134;9.212;2023-11-18T15:47:15;100435.72;;;8.58;100.00
49945;BME280;35838;49.134;9.212;2023-11-18T15:48:51;100435.75;;;8.61;100.00
49945;BME280;35838;49.134;9.212;2023-11-18T15:50:26;100430.56;;;8.61;100.00
49945;BME280;35838;49.134;9.212;2023-11-18T15:51:59;100428.84;;;8.60;100.00
49945;BME280;35838;49.134;9.212;2023-11-18T15:53:33;100430.63;;;8.62;100.00
49945;BME280;35838;49.134;9.212;2023-11-18T15:55:05;100428.88;;;8.63;100.00
49945;BME280;35838;49.134;9.212;2023-11-18T15:56:40;100428.81;;;8.57;100.00
49945;BME280;35838;49.134;9.212;2023-11-18T15:58:13;100424.50;;;8.57;100.00
49945;BME280;35838;49.134;9.212;2023-11-18T15:59:47;100426.25;;;8.58;100.00
49945;BME280;35838;49.134;9.212;2023-11-18T16:01:17;100422.81;;;8.59;100.00
49945;BME280;35838;49.134;9.212;2023-11-18T16:02:51;100420.84;;;8.41;100.00
49945;BME280;35838;49.134;9.212;2023-11-18T16:04:25;100410.59;;;8.51;100.00
49945;BME280;35838;49.134;9.212;2023-11-18T16:05:59;100412.41;;;8.55;100.00
49945;BME280;35838;49.134;9.212;2023-11-18T16:07:33;100413.19;;;8.48;100.00
49945;BME280;35838;49.134;9.212;2023-11-18T16:09:04;100414.84;;;8.45;100.00
49945;BME280;35838;49.134;9.212;2023-11-18T16:10:37;100408.06;;;8.52;100.00
49945;BME280;35838;49.134;9.212;2023-11-18T16:12:11;100401.13;;;8.50;100.00
49945;BME280;35838;49.134;9.212;2023-11-18T16:13:42;100403.63;;;8.46;100.00
49945;BME280;35838;49.134;9.212;2023-11-18T16:15:16;100406.19;;;8.43;100.00
49945;BME280;35838;49.134;9.212;2023-11-18T16:16:47;100394.16;;;8.45;100.00
49945;BME280;35838;49.134;9.212;2023-11-18T16:18:21;100399.41;;;8.49;100.00
49945;BME280;35838;49.134;9.212;2023-11-18T16:19:57;100388.91;;;8.42;100.00
49945;BME280;35838;49.134;9.212;2023-11-18T16:21:29;100375.19;;;8.46;100.00
49945;BME280;35838;49.134;9.212;2023-11-18T16:23:03;100380.44;;;8.50;100.00
49945;BME280;35838;49.134;9.212;2023-11-18T16:24:38;100381.22;;;8.45;100.00
49945;BME280;35838;49.134;9.212;2023-11-18T16:26:09;100376.88;;;8.44;100.00
49945;BME280;35838;49.134;9.212;2023-11-18T16:27:43;100373.44;;;8.45;100.00
49945;BME280;35838;49.134;9.212;2023-11-18T16:29:14;100376.88;;;8.43;100.00
49945;BME280;35838;49.134;9.212;2023-11-18T16:30:48;100376.88;;;8.41;100.00
49945;BME280;35838;49.134;9.212;2023-11-18T16:32:21;100361.31;;;8.40;100.00
49945;BME280;35838;49.134;9.212;2023-11-18T16:33:56;100358.69;;;8.37;100.00
49945;BME280;35838;49.134;9.212;2023-11-18T16:35:29;100357.75;;;8.33;100.00
49945;BME280;35838;49.134;9.212;2023-11-18T16:37:03;100362.13;;;8.37;100.00
49945;BME280;35838;49.134;9.212;2023-11-18T16:38:34;100349.22;;;8.37;100.00
49945;BME280;35838;49.134;9.212;2023-11-18T16:40:09;100349.16;;;8.31;100.00
49945;BME280;35838;49.134;9.212;2023-11-18T16:41:40;100341.41;;;8.34;100.00
49945;BME280;35838;49.134;9.212;2023-11-18T16:43:14;100337.06;;;8.33;100.00
49945;BME280;35838;49.134;9.212;2023-11-18T16:44:45;100331.00;;;8.28;100.00
49945;BME280;35838;49.134;9.212;2023-11-18T16:46:19;100324.97;;;8.29;100.00
49945;BME280;35838;49.134;9.212;2023-11-18T16:47:52;100321.53;;;8.30;100.00
49945;BME280;35838;49.134;9.212;2023-11-18T16:49:25;100318.06;;;8.26;100.00
49945;BME280;35838;49.134;9.212;2023-11-18T16:50:59;100308.59;;;8.30;100.00
49945;BME280;35838;49.134;9.212;2023-11-18T16:52:33;100307.75;;;8.31;100.00
49945;BME280;35838;49.134;9.212;2023-11-18T16:54:04;100304.22;;;8.23;100.00
49945;BME280;35838;49.134;9.212;2023-11-18T16:55:38;100314.53;;;8.21;100.00
49945;BME280;35838;49.134;9.212;2023-11-18T16:57:11;100331.81;;;8.24;100.00
49945;BME280;35838;49.134;9.212;2023-11-18T16:58:45;100328.34;;;8.25;100.00
49945;BME280;35838;49.134;9.212;2023-11-18T17:00:16;100327.50;;;8.23;100.00
49945;BME280;35838;49.134;9.212;2023-11-18T17:01:52;100328.41;;;8.26;100.00
49945;BME280;35838;49.134;9.212;2023-11-18T17:03:23;100330.94;;;8.23;100.00
49945;BME280;35838;49.134;9.212;2023-11-18T17:04:57;100319.75;;;8.26;100.00
49945;BME280;35838;49.134;9.212;2023-11-18T17:06:31;100324.03;;;8.22;100.00
49945;BME280;35838;49.134;9.212;2023-11-18T17:08:04;100329.22;;;8.24;100.00
49945;BME280;35838;49.134;9.212;2023-11-18T17:09:36;100318.91;;;8.27;100.00
49945;BME280;35838;49.134;9.212;2023-11-18T17:11:09;100310.31;;;8.28;100.00
49945;BME280;35838;49.134;9.212;2023-11-18T17:12:41;100296.53;;;8.29;100.00
49945;BME280;35838;49.134;9.212;2023-11-18T17:14:15;100289.56;;;8.23;100.00
49945;BME280;35838;49.134;9.212;2023-11-18T17:15:49;100292.22;;;8.29;100.00
49945;BME280;35838;49.134;9.212;2023-11-18T17:17:22;100293.72;;;8.12;100.00
49945;BME280;35838;49.134;9.212;2023-11-18T17:18:53;100296.34;;;8.15;100.00
49945;BME280;35838;49.134;9.212;2023-11-18T17:20:27;100287.75;;;8.16;100.00
49945;BME280;35838;49.134;9.212;2023-11-18T17:22:10;100281.75;;;8.20;100.00
49945;BME280;35838;49.134;9.212;2023-11-18T17:23:46;100287.81;;;8.19;100.00
49945;BME280;35838;49.134;9.212;2023-11-18T17:25:17;100287.84;;;8.24;100.00
49945;BME280;35838;49.134;9.212;2023-11-18T17:26:53;100280.97;;;8.26;100.00
49945;BME280;35838;49.134;9.212;2023-11-18T17:28:27;100284.41;;;8.25;100.00
49945;BME280;35838;49.134;9.212;2023-11-18T17:29:58;100286.13;;;8.26;100.00
49945;BME280;35838;49.134;9.212;2023-11-18T17:31:32;100287.03;;;8.28;100.00
49945;BME280;35838;49.134;9.212;2023-11-18T17:33:03;100278.38;;;8.26;100.00
49945;BME280;35838;49.134;9.212;2023-11-18T17:34:36;100261.97;;;8.22;100.00
49945;BME280;35838;49.134;9.212;2023-11-18T17:36:08;100249.88;;;8.20;100.00
49945;BME280;35838;49.134;9.212;2023-11-18T17:37:44;100229.13;;;8.13;100.00
49945;BME280;35838;49.134;9.212;2023-11-18T17:39:16;100228.22;;;8.10;100.00
49945;BME280;35838;49.134;9.212;2023-11-18T17:40:49;100236.84;;;8.10;100.00
49945;BME280;35838;49.134;9.212;2023-11-18T17:42:20;100230.81;;;8.11;100.00
49945;BME280;35838;49.134;9.212;2023-11-18T17:43:54;100224.81;;;8.15;100.00
49945;BME280;35838;49.134;9.212;2023-11-18T17:45:25;100228.34;;;8.21;100.00
49945;BME280;35838;49.134;9.212;2023-11-18T17:46:59;100231.72;;;8.13;100.00
49945;BME280;35838;49.134;9.212;2023-11-18T17:48:31;100229.09;;;8.12;100.00
49945;BME280;35838;49.134;9.212;2023-11-18T17:50:05;100229.97;;;8.12;100.00
49945;BME280;35838;49.134;9.212;2023-11-18T17:51:39;100229.94;;;8.09;100.00
49945;BME280;35838;49.134;9.212;2023-11-18T17:53:15;100246.28;;;8.07;100.00
49945;BME280;35838;49.134;9.212;2023-11-18T17:54:46;100244.47;;;7.99;100.00
49945;BME280;35838;49.134;9.212;2023-11-18T17:56:20;100252.19;;;7.98;100.00
49945;BME280;35838;49.134;9.212;2023-11-18T17:57:54;100257.28;;;7.92;100.00
49945;BME280;35838;49.134;9.212;2023-11-18T17:59:25;100269.50;;;8.02;100.00
49945;BME280;35838;49.134;9.212;2023-11-18T18:00:59;100273.66;;;7.91;100.00
49945;BME280;35838;49.134;9.212;2023-11-18T18:02:32;100272.00;;;7.96;100.00
49945;BME280;35838;49.134;9.212;2023-11-18T18:04:04;100278.88;;;7.94;100.00
49945;BME280;35838;49.134;9.212;2023-11-18T18:05:38;100277.13;;;7.94;100.00
49945;BME280;35838;49.134;9.212;2023-11-18T18:07:09;100279.59;;;7.85;100.00
49945;BME280;35838;49.134;9.212;2023-11-18T18:08:45;100271.06;;;7.89;100.00
49945;BME280;35838;49.134;9.212;2023-11-18T18:10:16;100267.69;;;7.95;100.00
49945;BME280;35838;49.134;9.212;2023-11-18T18:11:52;100258.13;;;7.88;100.00
49945;BME280;35838;49.134;9.212;2023-11-18T18:13:23;100258.09;;;7.86;100.00
49945;BME280;35838;49.134;9.212;2023-11-18T18:14:57;100253.69;;;7.80;100.00
49945;BME280;35838;49.134;9.212;2023-11-18T18:16:28;100246.78;;;7.76;100.00
49945;BME280;35838;49.134;9.212;2023-11-18T18:18:01;100248.53;;;7.79;100.00
49945;BME280;35838;49.134;9.212;2023-11-18T18:19:32;100244.25;;;7.79;100.00
49945;BME280;35838;49.134;9.212;2023-11-18T18:21:06;100239.94;;;7.81;100.00
49945;BME280;35838;49.134;9.212;2023-11-18T18:22:38;100233.03;;;7.79;100.00
49945;BME280;35838;49.134;9.212;2023-11-18T18:24:15;100244.31;;;7.84;100.00
49945;BME280;35838;49.134;9.212;2023-11-18T18:25:46;100227.84;;;7.80;100.00
49945;BME280;35838;49.134;9.212;2023-11-18T18:27:20;100220.09;;;7.77;100.00
49945;BME280;35838;49.134;9.212;2023-11-18T18:28:52;100219.25;;;7.78;100.00
49945;BME280;35838;49.134;9.212;2023-11-18T18:30:25;100200.31;;;7.79;100.00
49945;BME280;35838;49.134;9.212;2023-11-18T18:31:56;100196.84;;;7.77;100.00
49945;BME280;35838;49.134;9.212;2023-11-18T18:33:30;100184.75;;;7.76;100.00
49945;BME280;35838;49.134;9.212;2023-11-18T18:35:04;100164.13;;;7.79;100.00
49945;BME280;35838;49.134;9.212;2023-11-18T18:36:36;100153.81;;;7.82;100.00
49945;BME280;35838;49.134;9.212;2023-11-18T18:38:10;100165.78;;;7.71;100.00
49945;BME280;35838;49.134;9.212;2023-11-18T18:39:43;100170.06;;;7.71;100.00
49945;BME280;35838;49.134;9.212;2023-11-18T18:41:17;100180.19;;;7.55;100.00
49945;BME280;35838;49.134;9.212;2023-11-18T18:42:49;100176.78;;;7.56;100.00
49945;BME280;35838;49.134;9.212;2023-11-18T18:44:22;100178.56;;;7.62;100.00
49945;BME280;35838;49.134;9.212;2023-11-18T18:45:56;100179.44;;;7.64;100.00
49945;BME280;35838;49.134;9.212;2023-11-18T18:47:29;100178.56;;;7.62;100.00
49945;BME280;35838;49.134;9.212;2023-11-18T18:49:00;100172.53;;;7.63;100.00
49945;BME280;35838;49.134;9.212;2023-11-18T18:50:34;100171.63;;;7.58;100.00
49945;BME280;35838;49.134;9.212;2023-11-18T18:52:10;100163.88;;;7.58;100.00
49945;BME280;35838;49.134;9.212;2023-11-18T18:53:42;100166.50;;;7.62;100.00
49945;BME280;35838;49.134;9.212;2023-11-18T18:55:19;100163.97;;;7.65;100.00
49945;BME280;35838;49.134;9.212;2023-11-18T18:56:50;100144.91;;;7.56;100.00
49945;BME280;35838;49.134;9.212;2023-11-18T18:58:24;100137.13;;;7.52;100.00
49945;BME280;35838;49.134;9.212;2023-11-18T18:59:55;100129.28;;;7.46;100.00
49945;BME280;35838;49.134;9.212;2023-11-18T19:01:29;100129.28;;;7.46;100.00
49945;BME280;35838;49.134;9.212;2023-11-18T19:03:02;100134.50;;;7.49;100.00
49945;BME280;35838;49.134;9.212;2023-11-18T19:04:33;100130.19;;;7.50;100.00
49945;BME280;35838;49.134;9.212;2023-11-18T19:06:07;100134.56;;;7.56;100.00
49945;BME280;35838;49.134;9.212;2023-11-18T19:07:41;100122.47;;;7.51;100.00
49945;BME280;35838;49.134;9.212;2023-11-18T19:09:15;100119.91;;;7.51;100.00
49945;BME280;35838;49.134;9.212;2023-11-18T19:10:51;100115.53;;;7.47;100.00
49945;BME280;35838;49.134;9.212;2023-11-18T19:12:25;100117.16;;;7.41;100.00
49945;BME280;35838;49.134;9.212;2023-11-18T19:13:56;100109.34;;;7.34;100.00
49945;BME280;35838;49.134;9.212;2023-11-18T19:15:29;100109.41;;;7.41;100.00
49945;BME280;35838;49.134;9.212;2023-11-18T19:17:03;100105.19;;;7.44;100.00
49945;BME280;35838;49.134;9.212;2023-11-18T19:18:35;100098.22;;;7.40;100.00
49945;BME280;35838;49.134;9.212;2023-11-18T19:20:09;100089.56;;;7.35;100.00
49945;BME280;35838;49.134;9.212;2023-11-18T19:21:43;100082.56;;;7.28;100.00
49945;BME280;35838;49.134;9.212;2023-11-18T19:23:21;100086.09;;;7.31;100.00
49945;BME280;35838;49.134;9.212;2023-11-18T19:24:54;100075.84;;;7.39;100.00
49945;BME280;35838;49.134;9.212;2023-11-18T19:26:28;100072.41;;;7.40;100.00
49945;BME280;35838;49.134;9.212;2023-11-18T19:28:06;100067.28;;;7.43;100.00
49945;BME280;35838;49.134;9.212;2023-11-18T19:29:39;100067.28;;;7.43;100.00
49945;BME280;35838;49.134;9.212;2023-11-18T19:31:13;100075.84;;;7.39;100.00
49945;BME280;35838;49.134;9.212;2023-11-18T19:32:44;100074.19;;;7.47;100.00
49945;BME280;35838;49.134;9.212;2023-11-18T19:34:18;100069.91;;;7.48;100.00
49945;BME280;35838;49.134;9.212;2023-11-18T19:35:52;100064.72;;;7.46;100.00
49945;BME280;35838;49.134;9.212;2023-11-18T19:37:25;100067.28;;;7.45;100.00
49945;BME280;35838;49.134;9.212;2023-11-18T19:38:56;100069.97;;;7.54;100.00
49945;BME280;35838;49.134;9.212;2023-11-18T19:40:30;100066.56;;;7.55;100.00
49945;BME280;35838;49.134;9.212;2023-11-18T19:42:05;100060.50;;;7.51;100.00
49945;BME280;35838;49.134;9.212;2023-11-18T19:43:38;100056.19;;;7.52;100.00
49945;BME280;35838;49.134;9.212;2023-11-18T19:45:12;100063.06;;;7.53;100.00
49945;BME280;35838;49.134;9.212;2023-11-18T19:46:43;100064.81;;;7.56;100.00
49945;BME280;35838;49.134;9.212;2023-11-18T19:48:20;100070.88;;;7.58;100.00
49945;BME280;35838;49.134;9.212;2023-11-18T19:49:51;100075.81;;;7.36;100.00
49945;BME280;35838;49.134;9.212;2023-11-18T19:51:25;100075.00;;;7.40;100.00
49945;BME280;35838;49.134;9.212;2023-11-18T19:52:56;100062.94;;;7.41;100.00
49945;BME280;35838;49.134;9.212;2023-11-18T19:54:29;100074.19;;;7.46;100.00
49945;BME280;35838;49.134;9.212;2023-11-18T19:56:02;100055.22;;;7.42;100.00
49945;BME280;35838;49.134;9.212;2023-11-18T19:57:41;100046.59;;;7.42;100.00
49945;BME280;35838;49.134;9.212;2023-11-18T19:59:15;100044.09;;;7.49;100.00
49945;BME280;35838;49.134;9.212;2023-11-18T20:00:46;100032.09;;;7.53;100.00
49945;BME280;35838;49.134;9.212;2023-11-18T20:02:20;100020.91;;;7.56;100.00
49945;BME280;35838;49.134;9.212;2023-11-18T20:03:51;100020.06;;;7.58;100.00
49945;BME280;35838;49.134;9.212;2023-11-18T20:05:25;100026.16;;;7.62;100.00
49945;BME280;35838;49.134;9.212;2023-11-18T20:06:56;100038.88;;;7.46;100.00
49945;BME280;35838;49.134;9.212;2023-11-18T20:08:30;100066.41;;;7.41;100.00
49945;BME280;35838;49.134;9.212;2023-11-18T20:10:04;100090.59;;;7.49;100.00
49945;BME280;35838;49.134;9.212;2023-11-18T20:11:35;100094.06;;;7.53;100.00
49945;BME280;35838;49.134;9.212;2023-11-18T20:13:11;100091.38;;;7.45;100.00
49945;BME280;35838;49.134;9.212;2023-11-18T20:14:42;100091.53;;;7.56;100.00
49945;BME280;35838;49.134;9.212;2023-11-18T20:16:16;100065.72;;;7.59;100.00
49945;BME280;35838;49.134;9.212;2023-11-18T20:17:47;100060.59;;;7.64;100.00
49945;BME280;35838;49.134;9.212;2023-11-18T20:19:21;100055.47;;;7.65;100.00
49945;BME280;35838;49.134;9.212;2023-11-18T20:20:53;100052.91;;;7.67;100.00
49945;BME280;35838;49.134;9.212;2023-11-18T20:22:28;100046.84;;;7.63;100.00
49945;BME280;35838;49.134;9.212;2023-11-18T20:23:59;100037.41;;;7.68;100.00
49945;BME280;35838;49.134;9.212;2023-11-18T20:25:32;100021.09;;;7.71;100.00
49945;BME280;35838;49.134;9.212;2023-11-18T20:27:04;100018.56;;;7.79;100.00
49945;BME280;35838;49.134;9.212;2023-11-18T20:28:42;100013.34;;;7.76;100.00
49945;BME280;35838;49.134;9.212;2023-11-18T20:30:13;100000.41;;;7.74;100.00
49945;BME280;35838;49.134;9.212;2023-11-18T20:31:48;99998.72;;;7.76;100.00
49945;BME280;35838;49.134;9.212;2023-11-18T20:33:19;99998.69;;;7.73;100.00